sensor_id;sensor_type;location;lat;lon;timestamp;P1;durP1;ratioP1;P2;durP2;ratioP2
5539;SDS011;2792;52.452;9.752;2022-09-09T00:00:44;6.30;;;4.90;;
5539;SDS011;2792;52.452;9.752;2022-09-09T00:03:14;10.80;;;4.73;;
5539;SDS011;2792;52.452;9.752;2022-09-09T00:05:47;11.03;;;5.30;;
5539;SDS011;2792;52.452;9.752;2022-09-09T00:08:20;5.30;;;4.80;;
5539;SDS011;2792;52.452;9.752;2022-09-09T00:10:48;6.00;;;5.13;;
5539;SDS011;2792;52.452;9.752;2022-09-09T00:13:22;5.47;;;4.93;;
5539;SDS011;2792;52.452;9.752;2022-09-09T00:15:54;6.67;;;4.60;;
5539;SDS011;2792;52.452;9.752;2022-09-09T00:18:24;5.80;;;4.73;;
5539;SDS011;2792;52.452;9.752;2022-09-09T00:20:57;5.30;;;4.80;;
5539;SDS011;2792;52.452;9.752;2022-09-09T00:23:25;5.00;;;4.50;;
5539;SDS011;2792;52.452;9.752;2022-09-09T00:25:58;7.93;;;4.63;;
5539;SDS011;2792;52.452;9.752;2022-09-09T00:28:29;4.73;;;4.10;;
5539;SDS011;2792;52.452;9.752;2022-09-09T00:30:58;5.33;;;4.30;;
5539;SDS011;2792;52.452;9.752;2022-09-09T00:33:27;4.57;;;4.13;;
5539;SDS011;2792;52.452;9.752;2022-09-09T00:35:54;3.77;;;3.47;;
5539;SDS011;2792;52.452;9.752;2022-09-09T00:38:25;3.63;;;3.30;;
5539;SDS011;2792;52.452;9.752;2022-09-09T00:40:55;4.23;;;3.83;;
5539;SDS011;2792;52.452;9.752;2022-09-09T00:43:26;4.67;;;3.70;;
5539;SDS011;2792;52.452;9.752;2022-09-09T00:48:50;5.27;;;3.43;;
5539;SDS011;2792;52.452;9.752;2022-09-09T00:51:24;3.90;;;3.40;;
5539;SDS011;2792;52.452;9.752;2022-09-09T00:54:09;4.07;;;3.63;;
5539;SDS011;2792;52.452;9.752;2022-09-09T00:56:42;3.57;;;3.27;;
5539;SDS011;2792;52.452;9.752;2022-09-09T00:59:16;8.63;;;3.73;;
5539;SDS011;2792;52.452;9.752;2022-09-09T01:01:48;3.97;;;3.10;;
5539;SDS011;2792;52.452;9.752;2022-09-09T01:04:16;4.37;;;2.90;;
5539;SDS011;2792;52.452;9.752;2022-09-09T01:06:46;4.90;;;3.30;;
5539;SDS011;2792;52.452;9.752;2022-09-09T01:09:20;5.50;;;3.40;;
5539;SDS011;2792;52.452;9.752;2022-09-09T01:11:52;4.50;;;3.77;;
5539;SDS011;2792;52.452;9.752;2022-09-09T01:14:29;3.23;;;2.83;;
5539;SDS011;2792;52.452;9.752;2022-09-09T01:17:03;4.97;;;3.10;;
5539;SDS011;2792;52.452;9.752;2022-09-09T01:19:43;3.10;;;2.80;;
5539;SDS011;2792;52.452;9.752;2022-09-09T01:22:18;4.20;;;2.60;;
5539;SDS011;2792;52.452;9.752;2022-09-09T01:25:01;2.73;;;2.53;;
5539;SDS011;2792;52.452;9.752;2022-09-09T01:27:39;3.80;;;3.40;;
5539;SDS011;2792;52.452;9.752;2022-09-09T01:30:08;3.30;;;3.00;;
5539;SDS011;2792;52.452;9.752;2022-09-09T01:32:40;3.43;;;3.13;;
5539;SDS011;2792;52.452;9.752;2022-09-09T01:35:08;4.53;;;2.90;;
5539;SDS011;2792;52.452;9.752;2022-09-09T01:37:37;2.70;;;2.13;;
5539;SDS011;2792;52.452;9.752;2022-09-09T01:40:04;2.80;;;2.50;;
5539;SDS011;2792;52.452;9.752;2022-09-09T01:42:31;5.70;;;2.87;;
5539;SDS011;2792;52.452;9.752;2022-09-09T01:44:59;2.50;;;2.30;;
5539;SDS011;2792;52.452;9.752;2022-09-09T01:47:26;2.97;;;2.67;;
5539;SDS011;2792;52.452;9.752;2022-09-09T01:49:52;2.60;;;2.40;;
5539;SDS011;2792;52.452;9.752;2022-09-09T01:52:19;4.80;;;2.87;;
5539;SDS011;2792;52.452;9.752;2022-09-09T01:54:45;2.60;;;2.40;;
5539;SDS011;2792;52.452;9.752;2022-09-09T01:57:15;2.60;;;2.40;;
5539;SDS011;2792;52.452;9.752;2022-09-09T01:59:57;6.67;;;3.07;;
5539;SDS011;2792;52.452;9.752;2022-09-09T02:02:32;3.40;;;3.10;;
5539;SDS011;2792;52.452;9.752;2022-09-09T02:05:02;3.30;;;2.73;;
5539;SDS011;2792;52.452;9.752;2022-09-09T02:07:38;3.03;;;2.20;;
5539;SDS011;2792;52.452;9.752;2022-09-09T02:10:09;4.23;;;2.33;;
5539;SDS011;2792;52.452;9.752;2022-09-09T02:12:38;3.10;;;2.40;;
5539;SDS011;2792;52.452;9.752;2022-09-09T02:15:11;4.57;;;2.57;;
5539;SDS011;2792;52.452;9.752;2022-09-09T02:17:41;4.07;;;2.33;;
5539;SDS011;2792;52.452;9.752;2022-09-09T02:20:09;2.50;;;2.30;;
5539;SDS011;2792;52.452;9.752;2022-09-09T02:22:38;3.63;;;2.30;;
5539;SDS011;2792;52.452;9.752;2022-09-09T02:25:06;2.97;;;2.60;;
5539;SDS011;2792;52.452;9.752;2022-09-09T02:27:34;2.70;;;2.50;;
5539;SDS011;2792;52.452;9.752;2022-09-09T02:30:01;2.90;;;2.60;;
5539;SDS011;2792;52.452;9.752;2022-09-09T02:32:30;7.33;;;2.63;;
5539;SDS011;2792;52.452;9.752;2022-09-09T02:35:00;5.07;;;3.00;;
5539;SDS011;2792;52.452;9.752;2022-09-09T02:37:29;2.77;;;2.40;;
5539;SDS011;2792;52.452;9.752;2022-09-09T02:39:58;4.83;;;2.97;;
5539;SDS011;2792;52.452;9.752;2022-09-09T02:42:24;3.27;;;2.63;;
5539;SDS011;2792;52.452;9.752;2022-09-09T02:44:51;4.20;;;3.03;;
5539;SDS011;2792;52.452;9.752;2022-09-09T02:47:21;3.07;;;2.77;;
5539;SDS011;2792;52.452;9.752;2022-09-09T02:49:56;4.77;;;2.60;;
5539;SDS011;2792;52.452;9.752;2022-09-09T02:52:27;3.43;;;2.40;;
5539;SDS011;2792;52.452;9.752;2022-09-09T02:54:59;3.60;;;2.40;;
5539;SDS011;2792;52.452;9.752;2022-09-09T02:57:31;3.13;;;2.67;;
5539;SDS011;2792;52.452;9.752;2022-09-09T02:59:59;6.77;;;2.70;;
5539;SDS011;2792;52.452;9.752;2022-09-09T03:02:26;5.70;;;3.00;;
5539;SDS011;2792;52.452;9.752;2022-09-09T03:04:53;9.00;;;2.40;;
5539;SDS011;2792;52.452;9.752;2022-09-09T03:07:20;3.50;;;2.50;;
5539;SDS011;2792;52.452;9.752;2022-09-09T03:09:47;7.43;;;2.90;;
5539;SDS011;2792;52.452;9.752;2022-09-09T03:12:14;5.27;;;2.57;;
5539;SDS011;2792;52.452;9.752;2022-09-09T03:14:41;4.90;;;2.27;;
5539;SDS011;2792;52.452;9.752;2022-09-09T03:17:09;6.43;;;2.60;;
5539;SDS011;2792;52.452;9.752;2022-09-09T03:19:35;3.67;;;2.80;;
5539;SDS011;2792;52.452;9.752;2022-09-09T03:22:02;3.60;;;2.50;;
5539;SDS011;2792;52.452;9.752;2022-09-09T03:24:31;3.60;;;2.90;;
5539;SDS011;2792;52.452;9.752;2022-09-09T03:26:58;5.90;;;2.70;;
5539;SDS011;2792;52.452;9.752;2022-09-09T03:29:24;5.00;;;2.30;;
5539;SDS011;2792;52.452;9.752;2022-09-09T03:31:51;6.03;;;2.83;;
5539;SDS011;2792;52.452;9.752;2022-09-09T03:34:17;5.40;;;2.83;;
5539;SDS011;2792;52.452;9.752;2022-09-09T03:36:44;3.63;;;2.93;;
5539;SDS011;2792;52.452;9.752;2022-09-09T03:39:11;7.60;;;3.37;;
5539;SDS011;2792;52.452;9.752;2022-09-09T03:41:39;5.07;;;2.57;;
5539;SDS011;2792;52.452;9.752;2022-09-09T03:44:05;4.40;;;2.70;;
5539;SDS011;2792;52.452;9.752;2022-09-09T03:46:32;7.87;;;3.30;;
5539;SDS011;2792;52.452;9.752;2022-09-09T03:48:58;4.50;;;2.47;;
5539;SDS011;2792;52.452;9.752;2022-09-09T03:51:26;4.10;;;2.63;;
5539;SDS011;2792;52.452;9.752;2022-09-09T03:53:53;6.50;;;2.23;;
5539;SDS011;2792;52.452;9.752;2022-09-09T03:56:20;4.30;;;2.53;;
5539;SDS011;2792;52.452;9.752;2022-09-09T03:58:48;4.83;;;2.73;;
5539;SDS011;2792;52.452;9.752;2022-09-09T04:01:15;3.37;;;2.23;;
5539;SDS011;2792;52.452;9.752;2022-09-09T04:03:42;2.50;;;2.30;;
5539;SDS011;2792;52.452;9.752;2022-09-09T04:06:10;4.30;;;2.77;;
5539;SDS011;2792;52.452;9.752;2022-09-09T04:08:38;4.10;;;2.23;;
5539;SDS011;2792;52.452;9.752;2022-09-09T04:11:05;3.67;;;2.13;;
5539;SDS011;2792;52.452;9.752;2022-09-09T04:13:32;4.57;;;2.80;;
5539;SDS011;2792;52.452;9.752;2022-09-09T04:16:01;3.23;;;2.80;;
5539;SDS011;2792;52.452;9.752;2022-09-09T04:18:29;3.00;;;2.53;;
5539;SDS011;2792;52.452;9.752;2022-09-09T04:20:56;3.10;;;2.80;;
5539;SDS011;2792;52.452;9.752;2022-09-09T04:23:23;2.60;;;2.30;;
5539;SDS011;2792;52.452;9.752;2022-09-09T04:25:52;6.60;;;2.50;;
5539;SDS011;2792;52.452;9.752;2022-09-09T04:28:20;2.97;;;2.50;;
5539;SDS011;2792;52.452;9.752;2022-09-09T04:30:47;2.33;;;2.13;;
5539;SDS011;2792;52.452;9.752;2022-09-09T04:33:15;3.97;;;2.00;;
5539;SDS011;2792;52.452;9.752;2022-09-09T04:35:43;4.90;;;2.50;;
5539;SDS011;2792;52.452;9.752;2022-09-09T04:38:10;2.17;;;2.07;;
5539;SDS011;2792;52.452;9.752;2022-09-09T04:40:37;2.60;;;2.30;;
5539;SDS011;2792;52.452;9.752;2022-09-09T04:43:07;4.87;;;2.30;;
5539;SDS011;2792;52.452;9.752;2022-09-09T04:45:34;2.80;;;2.50;;
5539;SDS011;2792;52.452;9.752;2022-09-09T04:48:01;3.23;;;2.50;;
5539;SDS011;2792;52.452;9.752;2022-09-09T04:50:30;4.23;;;2.37;;
5539;SDS011;2792;52.452;9.752;2022-09-09T04:52:59;3.40;;;2.17;;
5539;SDS011;2792;52.452;9.752;2022-09-09T04:55:26;2.80;;;2.20;;
5539;SDS011;2792;52.452;9.752;2022-09-09T04:57:52;6.27;;;2.50;;
5539;SDS011;2792;52.452;9.752;2022-09-09T05:00:19;2.97;;;2.20;;
5539;SDS011;2792;52.452;9.752;2022-09-09T05:02:45;3.47;;;2.70;;
5539;SDS011;2792;52.452;9.752;2022-09-09T05:05:12;3.93;;;2.33;;
5539;SDS011;2792;52.452;9.752;2022-09-09T05:07:40;2.73;;;2.50;;
5539;SDS011;2792;52.452;9.752;2022-09-09T05:10:07;5.57;;;2.40;;
5539;SDS011;2792;52.452;9.752;2022-09-09T05:12:35;4.07;;;2.90;;
5539;SDS011;2792;52.452;9.752;2022-09-09T05:15:02;7.13;;;2.80;;
5539;SDS011;2792;52.452;9.752;2022-09-09T05:17:28;3.60;;;2.53;;
5539;SDS011;2792;52.452;9.752;2022-09-09T05:19:55;5.63;;;3.10;;
5539;SDS011;2792;52.452;9.752;2022-09-09T05:22:22;4.07;;;3.20;;
5539;SDS011;2792;52.452;9.752;2022-09-09T05:24:50;5.97;;;2.90;;
5539;SDS011;2792;52.452;9.752;2022-09-09T05:27:16;9.27;;;4.83;;
5539;SDS011;2792;52.452;9.752;2022-09-09T05:29:44;6.03;;;2.87;;
5539;SDS011;2792;52.452;9.752;2022-09-09T05:32:11;5.67;;;3.20;;
5539;SDS011;2792;52.452;9.752;2022-09-09T05:34:38;7.13;;;3.20;;
5539;SDS011;2792;52.452;9.752;2022-09-09T05:37:05;3.33;;;3.03;;
5539;SDS011;2792;52.452;9.752;2022-09-09T05:39:32;4.63;;;2.70;;
5539;SDS011;2792;52.452;9.752;2022-09-09T05:42:02;6.30;;;3.20;;
5539;SDS011;2792;52.452;9.752;2022-09-09T05:44:30;5.17;;;3.03;;
5539;SDS011;2792;52.452;9.752;2022-09-09T05:46:56;5.13;;;3.70;;
5539;SDS011;2792;52.452;9.752;2022-09-09T05:49:23;5.67;;;3.00;;
5539;SDS011;2792;52.452;9.752;2022-09-09T05:51:50;7.33;;;4.03;;
5539;SDS011;2792;52.452;9.752;2022-09-09T05:54:16;8.33;;;3.27;;
5539;SDS011;2792;52.452;9.752;2022-09-09T05:56:43;5.40;;;3.03;;
5539;SDS011;2792;52.452;9.752;2022-09-09T05:59:11;7.83;;;3.10;;
5539;SDS011;2792;52.452;9.752;2022-09-09T06:01:37;7.33;;;3.80;;
5539;SDS011;2792;52.452;9.752;2022-09-09T06:04:05;7.43;;;3.60;;
5539;SDS011;2792;52.452;9.752;2022-09-09T06:06:32;3.80;;;3.50;;
5539;SDS011;2792;52.452;9.752;2022-09-09T06:09:02;6.57;;;4.03;;
5539;SDS011;2792;52.452;9.752;2022-09-09T06:11:31;13.03;;;5.00;;
5539;SDS011;2792;52.452;9.752;2022-09-09T06:14:01;5.07;;;3.80;;
5539;SDS011;2792;52.452;9.752;2022-09-09T06:16:29;5.53;;;3.87;;
5539;SDS011;2792;52.452;9.752;2022-09-09T06:18:57;8.77;;;3.30;;
5539;SDS011;2792;52.452;9.752;2022-09-09T06:21:25;12.77;;;3.83;;
5539;SDS011;2792;52.452;9.752;2022-09-09T06:23:52;8.07;;;3.30;;
5539;SDS011;2792;52.452;9.752;2022-09-09T06:26:20;6.73;;;3.50;;
5539;SDS011;2792;52.452;9.752;2022-09-09T06:28:48;8.53;;;3.53;;
5539;SDS011;2792;52.452;9.752;2022-09-09T06:31:16;4.60;;;3.40;;
5539;SDS011;2792;52.452;9.752;2022-09-09T06:33:48;8.33;;;3.97;;
5539;SDS011;2792;52.452;9.752;2022-09-09T06:36:15;4.80;;;3.33;;
5539;SDS011;2792;52.452;9.752;2022-09-09T06:38:43;15.23;;;3.93;;
5539;SDS011;2792;52.452;9.752;2022-09-09T06:41:10;12.03;;;3.73;;
5539;SDS011;2792;52.452;9.752;2022-09-09T06:43:38;5.20;;;3.90;;
5539;SDS011;2792;52.452;9.752;2022-09-09T06:46:05;6.23;;;3.80;;
5539;SDS011;2792;52.452;9.752;2022-09-09T06:48:33;10.30;;;3.70;;
5539;SDS011;2792;52.452;9.752;2022-09-09T06:51:04;9.27;;;4.50;;
5539;SDS011;2792;52.452;9.752;2022-09-09T06:53:31;7.00;;;3.53;;
5539;SDS011;2792;52.452;9.752;2022-09-09T06:55:59;5.70;;;3.60;;
5539;SDS011;2792;52.452;9.752;2022-09-09T06:58:27;4.73;;;3.27;;
5539;SDS011;2792;52.452;9.752;2022-09-09T07:01:00;4.97;;;3.70;;
5539;SDS011;2792;52.452;9.752;2022-09-09T07:03:28;7.83;;;3.77;;
5539;SDS011;2792;52.452;9.752;2022-09-09T07:05:54;8.77;;;3.83;;
5539;SDS011;2792;52.452;9.752;2022-09-09T07:08:23;9.93;;;3.90;;
5539;SDS011;2792;52.452;9.752;2022-09-09T07:10:51;7.73;;;4.20;;
5539;SDS011;2792;52.452;9.752;2022-09-09T07:13:19;5.83;;;4.27;;
5539;SDS011;2792;52.452;9.752;2022-09-09T07:15:46;7.33;;;3.87;;
5539;SDS011;2792;52.452;9.752;2022-09-09T07:18:13;6.77;;;3.43;;
5539;SDS011;2792;52.452;9.752;2022-09-09T07:20:39;5.20;;;3.57;;
5539;SDS011;2792;52.452;9.752;2022-09-09T07:23:06;8.37;;;3.60;;
5539;SDS011;2792;52.452;9.752;2022-09-09T07:25:34;4.30;;;3.40;;
5539;SDS011;2792;52.452;9.752;2022-09-09T07:28:01;6.20;;;3.43;;
5539;SDS011;2792;52.452;9.752;2022-09-09T07:30:28;5.60;;;3.23;;
5539;SDS011;2792;52.452;9.752;2022-09-09T07:32:54;4.90;;;3.20;;
5539;SDS011;2792;52.452;9.752;2022-09-09T07:35:22;6.33;;;3.90;;
5539;SDS011;2792;52.452;9.752;2022-09-09T07:37:48;5.20;;;2.63;;
5539;SDS011;2792;52.452;9.752;2022-09-09T07:40:15;4.43;;;2.67;;
5539;SDS011;2792;52.452;9.752;2022-09-09T07:42:43;9.33;;;3.37;;
5539;SDS011;2792;52.452;9.752;2022-09-09T07:45:10;4.03;;;2.70;;
5539;SDS011;2792;52.452;9.752;2022-09-09T07:47:36;5.20;;;3.33;;
5539;SDS011;2792;52.452;9.752;2022-09-09T07:50:03;7.13;;;2.83;;
5539;SDS011;2792;52.452;9.752;2022-09-09T07:52:30;8.40;;;2.80;;
5539;SDS011;2792;52.452;9.752;2022-09-09T07:54:57;7.23;;;2.97;;
5539;SDS011;2792;52.452;9.752;2022-09-09T07:57:23;5.20;;;3.10;;
5539;SDS011;2792;52.452;9.752;2022-09-09T07:59:51;7.10;;;2.80;;
5539;SDS011;2792;52.452;9.752;2022-09-09T08:02:18;4.90;;;2.47;;
5539;SDS011;2792;52.452;9.752;2022-09-09T08:04:44;5.20;;;2.63;;
5539;SDS011;2792;52.452;9.752;2022-09-09T08:07:11;6.73;;;2.83;;
5539;SDS011;2792;52.452;9.752;2022-09-09T08:09:38;8.93;;;2.70;;
5539;SDS011;2792;52.452;9.752;2022-09-09T08:12:04;6.03;;;2.57;;
5539;SDS011;2792;52.452;9.752;2022-09-09T08:14:31;4.30;;;2.20;;
5539;SDS011;2792;52.452;9.752;2022-09-09T08:17:00;4.50;;;2.43;;
5539;SDS011;2792;52.452;9.752;2022-09-09T08:19:26;2.00;;;1.80;;
5539;SDS011;2792;52.452;9.752;2022-09-09T08:21:54;7.63;;;2.00;;
5539;SDS011;2792;52.452;9.752;2022-09-09T08:24:21;4.57;;;2.10;;
5539;SDS011;2792;52.452;9.752;2022-09-09T08:26:48;4.00;;;2.20;;
5539;SDS011;2792;52.452;9.752;2022-09-09T08:29:15;4.93;;;2.10;;
5539;SDS011;2792;52.452;9.752;2022-09-09T08:31:43;4.40;;;1.83;;
5539;SDS011;2792;52.452;9.752;2022-09-09T08:34:12;4.17;;;2.00;;
5539;SDS011;2792;52.452;9.752;2022-09-09T08:36:39;3.33;;;2.13;;
5539;SDS011;2792;52.452;9.752;2022-09-09T08:39:07;4.67;;;2.20;;
5539;SDS011;2792;52.452;9.752;2022-09-09T08:41:48;4.20;;;1.97;;
5539;SDS011;2792;52.452;9.752;2022-09-09T08:44:28;6.13;;;2.10;;
5539;SDS011;2792;52.452;9.752;2022-09-09T08:47:03;6.20;;;1.87;;
5539;SDS011;2792;52.452;9.752;2022-09-09T08:49:40;1.90;;;1.47;;
5539;SDS011;2792;52.452;9.752;2022-09-09T08:52:19;4.37;;;1.60;;
5539;SDS011;2792;52.452;9.752;2022-09-09T08:54:48;4.10;;;1.70;;
5539;SDS011;2792;52.452;9.752;2022-09-09T08:57:18;5.83;;;1.60;;
5539;SDS011;2792;52.452;9.752;2022-09-09T08:59:46;2.80;;;1.70;;
5539;SDS011;2792;52.452;9.752;2022-09-09T09:02:14;6.40;;;1.93;;
5539;SDS011;2792;52.452;9.752;2022-09-09T09:04:58;4.10;;;1.97;;
5539;SDS011;2792;52.452;9.752;2022-09-09T09:07:40;5.73;;;1.70;;
5539;SDS011;2792;52.452;9.752;2022-09-09T09:10:15;3.07;;;1.43;;
5539;SDS011;2792;52.452;9.752;2022-09-09T09:12:51;4.40;;;1.80;;
5539;SDS011;2792;52.452;9.752;2022-09-09T09:15:19;2.80;;;2.00;;
5539;SDS011;2792;52.452;9.752;2022-09-09T09:17:47;3.83;;;1.60;;
5539;SDS011;2792;52.452;9.752;2022-09-09T09:20:17;4.23;;;1.70;;
5539;SDS011;2792;52.452;9.752;2022-09-09T09:22:47;2.77;;;1.30;;
5539;SDS011;2792;52.452;9.752;2022-09-09T09:25:16;3.50;;;1.50;;
5539;SDS011;2792;52.452;9.752;2022-09-09T09:27:46;4.10;;;1.60;;
5539;SDS011;2792;52.452;9.752;2022-09-09T09:30:17;2.27;;;1.47;;
5539;SDS011;2792;52.452;9.752;2022-09-09T09:32:49;4.07;;;1.87;;
5539;SDS011;2792;52.452;9.752;2022-09-09T09:35:19;10.90;;;2.23;;
5539;SDS011;2792;52.452;9.752;2022-09-09T09:37:46;6.30;;;1.73;;
5539;SDS011;2792;52.452;9.752;2022-09-09T09:40:14;3.43;;;1.70;;
5539;SDS011;2792;52.452;9.752;2022-09-09T09:42:47;4.73;;;1.53;;
5539;SDS011;2792;52.452;9.752;2022-09-09T09:45:16;4.90;;;2.23;;
5539;SDS011;2792;52.452;9.752;2022-09-09T09:47:57;4.83;;;2.03;;
5539;SDS011;2792;52.452;9.752;2022-09-09T09:50:25;2.17;;;1.60;;
5539;SDS011;2792;52.452;9.752;2022-09-09T09:52:56;5.47;;;1.40;;
5539;SDS011;2792;52.452;9.752;2022-09-09T09:55:23;6.73;;;1.90;;
5539;SDS011;2792;52.452;9.752;2022-09-09T09:57:50;4.20;;;2.07;;
5539;SDS011;2792;52.452;9.752;2022-09-09T10:00:18;6.17;;;1.60;;
5539;SDS011;2792;52.452;9.752;2022-09-09T10:02:46;4.60;;;2.30;;
5539;SDS011;2792;52.452;9.752;2022-09-09T10:05:14;5.80;;;2.10;;
5539;SDS011;2792;52.452;9.752;2022-09-09T10:07:43;7.90;;;1.87;;
5539;SDS011;2792;52.452;9.752;2022-09-09T10:10:12;2.70;;;1.50;;
5539;SDS011;2792;52.452;9.752;2022-09-09T10:12:43;4.40;;;1.60;;
5539;SDS011;2792;52.452;9.752;2022-09-09T10:15:29;4.00;;;1.70;;
5539;SDS011;2792;52.452;9.752;2022-09-09T10:18:06;4.80;;;1.80;;
5539;SDS011;2792;52.452;9.752;2022-09-09T10:20:41;2.10;;;1.40;;
5539;SDS011;2792;52.452;9.752;2022-09-09T10:23:17;6.80;;;1.70;;
5539;SDS011;2792;52.452;9.752;2022-09-09T10:25:58;8.27;;;1.77;;
5539;SDS011;2792;52.452;9.752;2022-09-09T10:28:38;3.37;;;1.50;;
5539;SDS011;2792;52.452;9.752;2022-09-09T10:31:16;3.07;;;1.63;;
5539;SDS011;2792;52.452;9.752;2022-09-09T10:33:49;5.20;;;1.77;;
5539;SDS011;2792;52.452;9.752;2022-09-09T10:36:17;9.47;;;2.57;;
5539;SDS011;2792;52.452;9.752;2022-09-09T10:38:47;7.63;;;2.07;;
5539;SDS011;2792;52.452;9.752;2022-09-09T10:41:17;5.93;;;1.80;;
5539;SDS011;2792;52.452;9.752;2022-09-09T10:43:51;3.80;;;1.90;;
5539;SDS011;2792;52.452;9.752;2022-09-09T10:46:27;6.63;;;2.30;;
5539;SDS011;2792;52.452;9.752;2022-09-09T10:49:02;3.87;;;2.10;;
5539;SDS011;2792;52.452;9.752;2022-09-09T10:51:39;6.07;;;2.43;;
5539;SDS011;2792;52.452;9.752;2022-09-09T10:54:16;4.67;;;1.70;;
5539;SDS011;2792;52.452;9.752;2022-09-09T10:56:50;5.17;;;1.77;;
5539;SDS011;2792;52.452;9.752;2022-09-09T10:59:22;5.60;;;1.70;;
5539;SDS011;2792;52.452;9.752;2022-09-09T11:01:52;4.93;;;1.80;;
5539;SDS011;2792;52.452;9.752;2022-09-09T11:04:21;8.13;;;1.93;;
5539;SDS011;2792;52.452;9.752;2022-09-09T11:06:49;7.67;;;2.00;;
5539;SDS011;2792;52.452;9.752;2022-09-09T11:09:19;4.50;;;1.80;;
5539;SDS011;2792;52.452;9.752;2022-09-09T11:11:50;2.30;;;1.40;;
5539;SDS011;2792;52.452;9.752;2022-09-09T11:14:19;6.47;;;1.60;;
5539;SDS011;2792;52.452;9.752;2022-09-09T11:16:50;5.33;;;1.77;;
5539;SDS011;2792;52.452;9.752;2022-09-09T11:19:19;4.60;;;1.60;;
5539;SDS011;2792;52.452;9.752;2022-09-09T11:21:49;12.60;;;2.40;;
5539;SDS011;2792;52.452;9.752;2022-09-09T11:24:20;5.47;;;1.70;;
5539;SDS011;2792;52.452;9.752;2022-09-09T11:26:50;3.83;;;1.70;;
5539;SDS011;2792;52.452;9.752;2022-09-09T11:29:27;5.23;;;2.23;;
5539;SDS011;2792;52.452;9.752;2022-09-09T11:32:12;4.60;;;1.73;;
5539;SDS011;2792;52.452;9.752;2022-09-09T11:34:50;6.80;;;3.10;;
5539;SDS011;2792;52.452;9.752;2022-09-09T11:40:29;5.93;;;1.93;;
5539;SDS011;2792;52.452;9.752;2022-09-09T11:43:03;4.47;;;1.70;;
5539;SDS011;2792;52.452;9.752;2022-09-09T11:45:31;5.40;;;1.60;;
5539;SDS011;2792;52.452;9.752;2022-09-09T11:47:59;2.20;;;1.60;;
5539;SDS011;2792;52.452;9.752;2022-09-09T11:50:30;3.47;;;2.23;;
5539;SDS011;2792;52.452;9.752;2022-09-09T11:56:00;3.27;;;1.47;;
5539;SDS011;2792;52.452;9.752;2022-09-09T11:58:33;2.90;;;1.40;;
5539;SDS011;2792;52.452;9.752;2022-09-09T12:01:13;5.90;;;2.10;;
5539;SDS011;2792;52.452;9.752;2022-09-09T12:03:41;2.77;;;1.60;;
5539;SDS011;2792;52.452;9.752;2022-09-09T12:06:11;5.03;;;1.87;;
5539;SDS011;2792;52.452;9.752;2022-09-09T12:08:40;3.07;;;1.37;;
5539;SDS011;2792;52.452;9.752;2022-09-09T12:11:12;6.47;;;1.80;;
5539;SDS011;2792;52.452;9.752;2022-09-09T12:13:52;3.43;;;1.53;;
5539;SDS011;2792;52.452;9.752;2022-09-09T12:16:27;6.47;;;1.40;;
5539;SDS011;2792;52.452;9.752;2022-09-09T12:19:02;2.73;;;1.20;;
5539;SDS011;2792;52.452;9.752;2022-09-09T12:21:32;1.57;;;1.30;;
5539;SDS011;2792;52.452;9.752;2022-09-09T12:24:02;1.97;;;1.40;;
5539;SDS011;2792;52.452;9.752;2022-09-09T12:26:32;2.47;;;1.30;;
5539;SDS011;2792;52.452;9.752;2022-09-09T12:29:03;2.07;;;1.10;;
5539;SDS011;2792;52.452;9.752;2022-09-09T12:31:39;1.53;;;1.00;;
5539;SDS011;2792;52.452;9.752;2022-09-09T12:34:13;2.13;;;1.30;;
5539;SDS011;2792;52.452;9.752;2022-09-09T12:36:44;1.60;;;1.00;;
5539;SDS011;2792;52.452;9.752;2022-09-09T12:39:16;2.57;;;1.37;;
5539;SDS011;2792;52.452;9.752;2022-09-09T12:41:52;3.20;;;1.43;;
5539;SDS011;2792;52.452;9.752;2022-09-09T12:44:22;2.07;;;1.17;;
5539;SDS011;2792;52.452;9.752;2022-09-09T12:46:49;2.70;;;2.03;;
5539;SDS011;2792;52.452;9.752;2022-09-09T12:49:26;2.50;;;1.17;;
5539;SDS011;2792;52.452;9.752;2022-09-09T12:51:59;2.20;;;1.00;;
5539;SDS011;2792;52.452;9.752;2022-09-09T12:54:28;3.80;;;1.47;;
5539;SDS011;2792;52.452;9.752;2022-09-09T12:56:56;1.93;;;1.20;;
5539;SDS011;2792;52.452;9.752;2022-09-09T12:59:24;6.53;;;1.80;;
5539;SDS011;2792;52.452;9.752;2022-09-09T13:01:55;3.00;;;1.40;;
5539;SDS011;2792;52.452;9.752;2022-09-09T13:04:22;3.67;;;1.20;;
5539;SDS011;2792;52.452;9.752;2022-09-09T13:06:48;4.37;;;1.30;;
5539;SDS011;2792;52.452;9.752;2022-09-09T13:09:17;2.50;;;1.70;;
5539;SDS011;2792;52.452;9.752;2022-09-09T13:11:44;2.00;;;1.20;;
5539;SDS011;2792;52.452;9.752;2022-09-09T13:14:14;4.10;;;1.50;;
5539;SDS011;2792;52.452;9.752;2022-09-09T13:16:53;2.20;;;1.30;;
5539;SDS011;2792;52.452;9.752;2022-09-09T13:19:21;2.30;;;1.27;;
5539;SDS011;2792;52.452;9.752;2022-09-09T13:21:50;3.20;;;1.23;;
5539;SDS011;2792;52.452;9.752;2022-09-09T13:24:23;4.97;;;1.90;;
5539;SDS011;2792;52.452;9.752;2022-09-09T13:26:54;4.07;;;1.30;;
5539;SDS011;2792;52.452;9.752;2022-09-09T13:29:23;3.13;;;1.33;;
5539;SDS011;2792;52.452;9.752;2022-09-09T13:31:50;2.37;;;1.40;;
5539;SDS011;2792;52.452;9.752;2022-09-09T13:34:26;2.83;;;1.63;;
5539;SDS011;2792;52.452;9.752;2022-09-09T13:36:54;3.90;;;1.60;;
5539;SDS011;2792;52.452;9.752;2022-09-09T13:39:26;1.80;;;1.10;;
5539;SDS011;2792;52.452;9.752;2022-09-09T13:41:53;4.10;;;1.53;;
5539;SDS011;2792;52.452;9.752;2022-09-09T13:44:20;5.67;;;1.70;;
5539;SDS011;2792;52.452;9.752;2022-09-09T13:47:00;3.53;;;1.53;;
5539;SDS011;2792;52.452;9.752;2022-09-09T13:49:29;2.90;;;1.20;;
5539;SDS011;2792;52.452;9.752;2022-09-09T13:52:09;4.53;;;1.80;;
5539;SDS011;2792;52.452;9.752;2022-09-09T13:54:38;2.47;;;1.30;;
5539;SDS011;2792;52.452;9.752;2022-09-09T13:57:04;2.47;;;1.10;;
5539;SDS011;2792;52.452;9.752;2022-09-09T13:59:31;2.40;;;1.33;;
5539;SDS011;2792;52.452;9.752;2022-09-09T14:02:00;3.67;;;1.30;;
5539;SDS011;2792;52.452;9.752;2022-09-09T14:04:27;1.83;;;1.30;;
5539;SDS011;2792;52.452;9.752;2022-09-09T14:06:54;2.97;;;1.30;;
5539;SDS011;2792;52.452;9.752;2022-09-09T14:09:21;2.70;;;1.20;;
5539;SDS011;2792;52.452;9.752;2022-09-09T14:11:48;2.03;;;1.27;;
5539;SDS011;2792;52.452;9.752;2022-09-09T14:14:14;2.97;;;1.33;;
5539;SDS011;2792;52.452;9.752;2022-09-09T14:16:41;3.20;;;1.37;;
5539;SDS011;2792;52.452;9.752;2022-09-09T14:19:09;6.80;;;1.33;;
5539;SDS011;2792;52.452;9.752;2022-09-09T14:21:35;1.80;;;1.30;;
5539;SDS011;2792;52.452;9.752;2022-09-09T14:24:02;4.80;;;2.10;;
5539;SDS011;2792;52.452;9.752;2022-09-09T14:26:28;2.30;;;1.20;;
5539;SDS011;2792;52.452;9.752;2022-09-09T14:28:55;2.17;;;0.90;;
5539;SDS011;2792;52.452;9.752;2022-09-09T14:31:22;2.03;;;1.00;;
5539;SDS011;2792;52.452;9.752;2022-09-09T14:33:49;2.60;;;1.47;;
5539;SDS011;2792;52.452;9.752;2022-09-09T14:36:17;1.40;;;1.00;;
5539;SDS011;2792;52.452;9.752;2022-09-09T14:38:44;3.47;;;1.10;;
5539;SDS011;2792;52.452;9.752;2022-09-09T14:41:11;3.13;;;1.30;;
5539;SDS011;2792;52.452;9.752;2022-09-09T14:43:38;2.20;;;1.17;;
5539;SDS011;2792;52.452;9.752;2022-09-09T14:46:05;2.40;;;1.00;;
5539;SDS011;2792;52.452;9.752;2022-09-09T14:48:32;3.63;;;1.73;;
5539;SDS011;2792;52.452;9.752;2022-09-09T14:51:04;4.50;;;1.17;;
5539;SDS011;2792;52.452;9.752;2022-09-09T14:53:32;1.70;;;1.10;;
5539;SDS011;2792;52.452;9.752;2022-09-09T14:56:03;4.60;;;1.27;;
5539;SDS011;2792;52.452;9.752;2022-09-09T14:58:30;4.43;;;1.33;;
5539;SDS011;2792;52.452;9.752;2022-09-09T15:01:01;5.30;;;1.53;;
5539;SDS011;2792;52.452;9.752;2022-09-09T15:03:29;2.27;;;1.20;;
5539;SDS011;2792;52.452;9.752;2022-09-09T15:05:55;3.60;;;1.40;;
5539;SDS011;2792;52.452;9.752;2022-09-09T15:08:23;3.90;;;1.33;;
5539;SDS011;2792;52.452;9.752;2022-09-09T15:10:57;1.97;;;1.20;;
5539;SDS011;2792;52.452;9.752;2022-09-09T15:13:25;2.83;;;1.40;;
5539;SDS011;2792;52.452;9.752;2022-09-09T15:15:51;3.23;;;1.23;;
5539;SDS011;2792;52.452;9.752;2022-09-09T15:18:19;1.47;;;1.10;;
5539;SDS011;2792;52.452;9.752;2022-09-09T15:20:45;2.43;;;1.20;;
5539;SDS011;2792;52.452;9.752;2022-09-09T15:23:12;2.40;;;1.17;;
5539;SDS011;2792;52.452;9.752;2022-09-09T15:25:50;3.13;;;1.30;;
5539;SDS011;2792;52.452;9.752;2022-09-09T15:28:18;5.23;;;1.30;;
5539;SDS011;2792;52.452;9.752;2022-09-09T15:30:46;2.90;;;1.50;;
5539;SDS011;2792;52.452;9.752;2022-09-09T15:33:13;5.00;;;1.70;;
5539;SDS011;2792;52.452;9.752;2022-09-09T15:35:40;2.80;;;1.43;;
5539;SDS011;2792;52.452;9.752;2022-09-09T15:38:06;2.93;;;1.50;;